sensor_id;sensor_type;location;lat;lon;timestamp;P1;durP1;ratioP1;P2;durP2;ratioP2
67248;SDS011;63247;54.300;18.592;2023-07-29T00:01:36;32.50;;;18.65;;
67248;SDS011;63247;54.300;18.592;2023-07-29T00:04:01;27.10;;;15.63;;
67248;SDS011;63247;54.300;18.592;2023-07-29T00:06:27;26.80;;;16.13;;
67248;SDS011;63247;54.300;18.592;2023-07-29T00:08:53;31.03;;;17.23;;
67248;SDS011;63247;54.300;18.592;2023-07-29T00:11:18;28.97;;;16.27;;
67248;SDS011;63247;54.300;18.592;2023-07-29T00:13:43;30.20;;;15.60;;
67248;SDS011;63247;54.300;18.592;2023-07-29T00:16:09;28.90;;;16.30;;
67248;SDS011;63247;54.300;18.592;2023-07-29T00:18:34;28.60;;;15.63;;
67248;SDS011;63247;54.300;18.592;2023-07-29T00:21:00;26.80;;;15.60;;
67248;SDS011;63247;54.300;18.592;2023-07-29T00:23:25;29.60;;;16.30;;
67248;SDS011;63247;54.300;18.592;2023-07-29T00:25:51;28.73;;;15.77;;
67248;SDS011;63247;54.300;18.592;2023-07-29T00:28:16;27.90;;;15.27;;
67248;SDS011;63247;54.300;18.592;2023-07-29T00:30:42;27.97;;;16.87;;
67248;SDS011;63247;54.300;18.592;2023-07-29T00:33:07;31.80;;;16.70;;
67248;SDS011;63247;54.300;18.592;2023-07-29T00:35:33;30.95;;;16.30;;
67248;SDS011;63247;54.300;18.592;2023-07-29T00:37:59;30.03;;;17.03;;
67248;SDS011;63247;54.300;18.592;2023-07-29T00:40:24;29.35;;;16.23;;
67248;SDS011;63247;54.300;18.592;2023-07-29T00:42:53;31.73;;;16.30;;
67248;SDS011;63247;54.300;18.592;2023-07-29T00:45:18;28.83;;;16.15;;
67248;SDS011;63247;54.300;18.592;2023-07-29T00:47:44;31.13;;;17.00;;
67248;SDS011;63247;54.300;18.592;2023-07-29T00:50:11;29.48;;;16.30;;
67248;SDS011;63247;54.300;18.592;2023-07-29T00:52:37;33.97;;;19.00;;
67248;SDS011;63247;54.300;18.592;2023-07-29T00:55:03;27.40;;;14.98;;
67248;SDS011;63247;54.300;18.592;2023-07-29T00:57:30;28.92;;;16.25;;
67248;SDS011;63247;54.300;18.592;2023-07-29T00:59:55;32.13;;;16.50;;
67248;SDS011;63247;54.300;18.592;2023-07-29T01:02:21;29.17;;;16.33;;
67248;SDS011;63247;54.300;18.592;2023-07-29T01:04:51;36.08;;;16.90;;
67248;SDS011;63247;54.300;18.592;2023-07-29T01:10:03;36.85;;;16.80;;
67248;SDS011;63247;54.300;18.592;2023-07-29T01:12:43;31.30;;;17.08;;
67248;SDS011;63247;54.300;18.592;2023-07-29T01:15:33;29.02;;;16.83;;
67248;SDS011;63247;54.300;18.592;2023-07-29T01:18:30;33.40;;;17.13;;
67248;SDS011;63247;54.300;18.592;2023-07-29T01:20:59;36.47;;;17.43;;
67248;SDS011;63247;54.300;18.592;2023-07-29T01:23:31;34.92;;;18.48;;
67248;SDS011;63247;54.300;18.592;2023-07-29T01:25:58;35.67;;;18.58;;
67248;SDS011;63247;54.300;18.592;2023-07-29T01:28:24;35.08;;;17.88;;
67248;SDS011;63247;54.300;18.592;2023-07-29T01:30:51;34.40;;;18.20;;
67248;SDS011;63247;54.300;18.592;2023-07-29T01:33:30;35.15;;;17.70;;
67248;SDS011;63247;54.300;18.592;2023-07-29T01:36:07;34.63;;;17.95;;
67248;SDS011;63247;54.300;18.592;2023-07-29T01:38:36;34.63;;;17.50;;
67248;SDS011;63247;54.300;18.592;2023-07-29T01:41:06;33.10;;;17.67;;
67248;SDS011;63247;54.300;18.592;2023-07-29T01:43:33;35.73;;;17.70;;
67248;SDS011;63247;54.300;18.592;2023-07-29T01:46:02;34.97;;;18.00;;
67248;SDS011;63247;54.300;18.592;2023-07-29T01:48:28;37.15;;;18.58;;
67248;SDS011;63247;54.300;18.592;2023-07-29T01:50:55;34.63;;;17.83;;
67248;SDS011;63247;54.300;18.592;2023-07-29T01:53:20;38.33;;;18.70;;
67248;SDS011;63247;54.300;18.592;2023-07-29T01:55:46;36.77;;;17.77;;
67248;SDS011;63247;54.300;18.592;2023-07-29T01:58:11;38.57;;;18.23;;
67248;SDS011;63247;54.300;18.592;2023-07-29T02:00:37;37.58;;;18.90;;
67248;SDS011;63247;54.300;18.592;2023-07-29T02:03:03;35.80;;;18.50;;
67248;SDS011;63247;54.300;18.592;2023-07-29T02:05:28;39.25;;;18.80;;
67248;SDS011;63247;54.300;18.592;2023-07-29T02:07:54;35.97;;;18.67;;
67248;SDS011;63247;54.300;18.592;2023-07-29T02:10:20;37.05;;;19.10;;
67248;SDS011;63247;54.300;18.592;2023-07-29T02:12:45;37.42;;;18.27;;
67248;SDS011;63247;54.300;18.592;2023-07-29T02:15:10;40.10;;;19.40;;
67248;SDS011;63247;54.300;18.592;2023-07-29T02:17:36;38.77;;;19.50;;
67248;SDS011;63247;54.300;18.592;2023-07-29T02:20:02;39.58;;;19.45;;
67248;SDS011;63247;54.300;18.592;2023-07-29T02:22:29;39.38;;;19.55;;
67248;SDS011;63247;54.300;18.592;2023-07-29T02:24:54;40.23;;;19.67;;
67248;SDS011;63247;54.300;18.592;2023-07-29T02:27:20;38.40;;;18.67;;
67248;SDS011;63247;54.300;18.592;2023-07-29T02:29:45;41.97;;;19.95;;
67248;SDS011;63247;54.300;18.592;2023-07-29T02:32:10;38.80;;;19.33;;
67248;SDS011;63247;54.300;18.592;2023-07-29T02:34:36;40.63;;;19.70;;
67248;SDS011;63247;54.300;18.592;2023-07-29T02:37:01;38.47;;;19.27;;
67248;SDS011;63247;54.300;18.592;2023-07-29T02:39:27;44.03;;;19.83;;
67248;SDS011;63247;54.300;18.592;2023-07-29T02:41:52;38.03;;;18.70;;
67248;SDS011;63247;54.300;18.592;2023-07-29T02:44:17;44.33;;;20.00;;
67248;SDS011;63247;54.300;18.592;2023-07-29T02:46:44;42.35;;;19.42;;
67248;SDS011;63247;54.300;18.592;2023-07-29T02:49:09;41.80;;;19.10;;
67248;SDS011;63247;54.300;18.592;2023-07-29T02:51:35;35.70;;;18.03;;
67248;SDS011;63247;54.300;18.592;2023-07-29T02:54:00;39.13;;;19.17;;
67248;SDS011;63247;54.300;18.592;2023-07-29T02:56:26;38.90;;;19.40;;
67248;SDS011;63247;54.300;18.592;2023-07-29T02:58:51;35.95;;;17.50;;
67248;SDS011;63247;54.300;18.592;2023-07-29T03:01:17;39.23;;;18.70;;
67248;SDS011;63247;54.300;18.592;2023-07-29T03:03:42;37.35;;;18.33;;
67248;SDS011;63247;54.300;18.592;2023-07-29T03:06:08;38.75;;;18.27;;
67248;SDS011;63247;54.300;18.592;2023-07-29T03:08:39;36.43;;;17.93;;
67248;SDS011;63247;54.300;18.592;2023-07-29T03:11:08;35.15;;;18.23;;
67248;SDS011;63247;54.300;18.592;2023-07-29T03:13:35;34.80;;;17.70;;
67248;SDS011;63247;54.300;18.592;2023-07-29T03:16:07;36.20;;;18.15;;
67248;SDS011;63247;54.300;18.592;2023-07-29T03:18:37;36.85;;;19.08;;
67248;SDS011;63247;54.300;18.592;2023-07-29T03:21:03;39.33;;;18.95;;
67248;SDS011;63247;54.300;18.592;2023-07-29T03:23:30;40.07;;;19.20;;
67248;SDS011;63247;54.300;18.592;2023-07-29T03:25:58;43.60;;;19.50;;
67248;SDS011;63247;54.300;18.592;2023-07-29T03:28:25;39.60;;;19.42;;
67248;SDS011;63247;54.300;18.592;2023-07-29T03:30:52;41.10;;;20.10;;
67248;SDS011;63247;54.300;18.592;2023-07-29T03:33:18;43.67;;;20.45;;
67248;SDS011;63247;54.300;18.592;2023-07-29T03:35:44;39.17;;;18.93;;
67248;SDS011;63247;54.300;18.592;2023-07-29T03:38:09;42.47;;;20.27;;
67248;SDS011;63247;54.300;18.592;2023-07-29T03:40:36;39.35;;;20.00;;
67248;SDS011;63247;54.300;18.592;2023-07-29T03:43:04;38.55;;;19.20;;
67248;SDS011;63247;54.300;18.592;2023-07-29T03:45:30;39.17;;;18.80;;
67248;SDS011;63247;54.300;18.592;2023-07-29T03:47:56;33.33;;;18.77;;
67248;SDS011;63247;54.300;18.592;2023-07-29T03:50:21;33.97;;;18.17;;
67248;SDS011;63247;54.300;18.592;2023-07-29T03:52:47;29.20;;;16.63;;
67248;SDS011;63247;54.300;18.592;2023-07-29T03:55:12;23.20;;;14.27;;
67248;SDS011;63247;54.300;18.592;2023-07-29T03:57:38;23.10;;;13.73;;
67248;SDS011;63247;54.300;18.592;2023-07-29T04:00:03;22.03;;;12.60;;
67248;SDS011;63247;54.300;18.592;2023-07-29T04:02:29;20.15;;;12.77;;
67248;SDS011;63247;54.300;18.592;2023-07-29T04:04:55;22.37;;;11.90;;
67248;SDS011;63247;54.300;18.592;2023-07-29T04:07:20;22.03;;;12.50;;
67248;SDS011;63247;54.300;18.592;2023-07-29T04:09:46;18.07;;;11.10;;
67248;SDS011;63247;54.300;18.592;2023-07-29T04:12:11;17.27;;;10.83;;
67248;SDS011;63247;54.300;18.592;2023-07-29T04:14:37;18.65;;;10.57;;
67248;SDS011;63247;54.300;18.592;2023-07-29T04:17:02;17.83;;;10.33;;
67248;SDS011;63247;54.300;18.592;2023-07-29T04:19:27;16.07;;;10.00;;
67248;SDS011;63247;54.300;18.592;2023-07-29T04:21:53;15.60;;;9.37;;
67248;SDS011;63247;54.300;18.592;2023-07-29T04:24:18;13.93;;;8.85;;
67248;SDS011;63247;54.300;18.592;2023-07-29T04:26:45;14.03;;;8.90;;
67248;SDS011;63247;54.300;18.592;2023-07-29T04:29:11;13.18;;;8.20;;
67248;SDS011;63247;54.300;18.592;2023-07-29T04:31:36;11.50;;;7.93;;
67248;SDS011;63247;54.300;18.592;2023-07-29T04:34:02;12.15;;;8.20;;
67248;SDS011;63247;54.300;18.592;2023-07-29T04:36:29;12.20;;;7.75;;
67248;SDS011;63247;54.300;18.592;2023-07-29T04:38:54;13.32;;;7.55;;
67248;SDS011;63247;54.300;18.592;2023-07-29T04:41:19;10.97;;;7.50;;
67248;SDS011;63247;54.300;18.592;2023-07-29T04:43:45;36.20;;;9.87;;
67248;SDS011;63247;54.300;18.592;2023-07-29T04:46:10;10.70;;;7.00;;
67248;SDS011;63247;54.300;18.592;2023-07-29T04:48:36;10.30;;;6.60;;
67248;SDS011;63247;54.300;18.592;2023-07-29T04:51:01;9.45;;;6.68;;
67248;SDS011;63247;54.300;18.592;2023-07-29T04:53:26;9.50;;;6.37;;
67248;SDS011;63247;54.300;18.592;2023-07-29T04:55:52;9.10;;;6.30;;
67248;SDS011;63247;54.300;18.592;2023-07-29T04:58:17;10.27;;;6.63;;
67248;SDS011;63247;54.300;18.592;2023-07-29T05:00:43;9.27;;;6.40;;
67248;SDS011;63247;54.300;18.592;2023-07-29T05:03:08;7.80;;;5.90;;
67248;SDS011;63247;54.300;18.592;2023-07-29T05:05:33;8.27;;;6.00;;
67248;SDS011;63247;54.300;18.592;2023-07-29T05:07:59;35.50;;;9.97;;
67248;SDS011;63247;54.300;18.592;2023-07-29T05:10:24;8.70;;;5.67;;
67248;SDS011;63247;54.300;18.592;2023-07-29T05:12:50;9.33;;;6.00;;
67248;SDS011;63247;54.300;18.592;2023-07-29T05:15:15;8.98;;;5.30;;
67248;SDS011;63247;54.300;18.592;2023-07-29T05:17:40;7.43;;;5.63;;
67248;SDS011;63247;54.300;18.592;2023-07-29T05:20:06;7.37;;;5.60;;
67248;SDS011;63247;54.300;18.592;2023-07-29T05:22:32;7.25;;;5.43;;
67248;SDS011;63247;54.300;18.592;2023-07-29T05:24:57;7.13;;;5.20;;
67248;SDS011;63247;54.300;18.592;2023-07-29T05:27:23;7.10;;;5.03;;
67248;SDS011;63247;54.300;18.592;2023-07-29T05:29:48;8.07;;;5.38;;
67248;SDS011;63247;54.300;18.592;2023-07-29T05:32:13;6.87;;;4.93;;
67248;SDS011;63247;54.300;18.592;2023-07-29T05:34:39;8.03;;;4.87;;
67248;SDS011;63247;54.300;18.592;2023-07-29T05:37:04;7.30;;;5.17;;
67248;SDS011;63247;54.300;18.592;2023-07-29T05:39:30;9.63;;;4.85;;
67248;SDS011;63247;54.300;18.592;2023-07-29T05:41:57;7.53;;;5.00;;
67248;SDS011;63247;54.300;18.592;2023-07-29T05:44:22;6.38;;;5.10;;
67248;SDS011;63247;54.300;18.592;2023-07-29T05:46:48;6.90;;;4.60;;
67248;SDS011;63247;54.300;18.592;2023-07-29T05:49:13;6.67;;;4.50;;
67248;SDS011;63247;54.300;18.592;2023-07-29T05:51:38;6.60;;;4.50;;
67248;SDS011;63247;54.300;18.592;2023-07-29T05:54:04;6.33;;;4.20;;
67248;SDS011;63247;54.300;18.592;2023-07-29T05:56:29;5.85;;;4.45;;
67248;SDS011;63247;54.300;18.592;2023-07-29T05:58:56;7.43;;;4.23;;
67248;SDS011;63247;54.300;18.592;2023-07-29T06:01:22;5.93;;;4.45;;
67248;SDS011;63247;54.300;18.592;2023-07-29T06:03:47;6.37;;;4.20;;
67248;SDS011;63247;54.300;18.592;2023-07-29T06:06:13;5.63;;;4.20;;
67248;SDS011;63247;54.300;18.592;2023-07-29T06:08:38;5.93;;;4.10;;
67248;SDS011;63247;54.300;18.592;2023-07-29T06:11:04;5.43;;;4.07;;
67248;SDS011;63247;54.300;18.592;2023-07-29T06:13:31;7.00;;;4.40;;
67248;SDS011;63247;54.300;18.592;2023-07-29T06:15:57;5.88;;;4.15;;
67248;SDS011;63247;54.300;18.592;2023-07-29T06:18:23;5.00;;;3.60;;
67248;SDS011;63247;54.300;18.592;2023-07-29T06:20:49;6.75;;;4.18;;
67248;SDS011;63247;54.300;18.592;2023-07-29T06:23:14;5.83;;;4.83;;
67248;SDS011;63247;54.300;18.592;2023-07-29T06:25:40;9.03;;;8.13;;
67248;SDS011;63247;54.300;18.592;2023-07-29T06:28:05;5.33;;;4.17;;
67248;SDS011;63247;54.300;18.592;2023-07-29T06:30:30;5.68;;;4.55;;
67248;SDS011;63247;54.300;18.592;2023-07-29T06:32:56;33.50;;;8.20;;
67248;SDS011;63247;54.300;18.592;2023-07-29T06:35:21;7.47;;;4.30;;
67248;SDS011;63247;54.300;18.592;2023-07-29T06:37:47;5.93;;;4.07;;
67248;SDS011;63247;54.300;18.592;2023-07-29T06:40:12;5.20;;;3.70;;
67248;SDS011;63247;54.300;18.592;2023-07-29T06:42:37;5.23;;;3.40;;
67248;SDS011;63247;54.300;18.592;2023-07-29T06:45:04;5.10;;;3.30;;
67248;SDS011;63247;54.300;18.592;2023-07-29T06:47:30;5.40;;;3.50;;
67248;SDS011;63247;54.300;18.592;2023-07-29T06:49:55;4.87;;;3.53;;
67248;SDS011;63247;54.300;18.592;2023-07-29T06:52:21;6.17;;;3.43;;
67248;SDS011;63247;54.300;18.592;2023-07-29T06:54:46;4.22;;;3.28;;
67248;SDS011;63247;54.300;18.592;2023-07-29T06:57:12;6.20;;;3.50;;
67248;SDS011;63247;54.300;18.592;2023-07-29T06:59:37;7.43;;;3.57;;
67248;SDS011;63247;54.300;18.592;2023-07-29T07:02:02;6.07;;;3.50;;
67248;SDS011;63247;54.300;18.592;2023-07-29T07:04:28;6.43;;;4.00;;
67248;SDS011;63247;54.300;18.592;2023-07-29T07:06:54;5.60;;;3.20;;
67248;SDS011;63247;54.300;18.592;2023-07-29T07:09:19;6.10;;;3.35;;
67248;SDS011;63247;54.300;18.592;2023-07-29T07:11:45;6.50;;;3.63;;
67248;SDS011;63247;54.300;18.592;2023-07-29T07:14:10;5.50;;;3.80;;
67248;SDS011;63247;54.300;18.592;2023-07-29T07:16:37;5.68;;;3.67;;
67248;SDS011;63247;54.300;18.592;2023-07-29T07:19:04;6.13;;;3.38;;
67248;SDS011;63247;54.300;18.592;2023-07-29T07:21:29;5.27;;;3.70;;
67248;SDS011;63247;54.300;18.592;2023-07-29T07:23:55;5.20;;;3.60;;
67248;SDS011;63247;54.300;18.592;2023-07-29T07:26:20;4.47;;;3.60;;
67248;SDS011;63247;54.300;18.592;2023-07-29T07:28:46;5.97;;;3.63;;
67248;SDS011;63247;54.300;18.592;2023-07-29T07:31:11;5.17;;;3.80;;
67248;SDS011;63247;54.300;18.592;2023-07-29T07:33:37;6.50;;;3.60;;
67248;SDS011;63247;54.300;18.592;2023-07-29T07:36:02;6.90;;;3.70;;
67248;SDS011;63247;54.300;18.592;2023-07-29T07:38:28;7.03;;;3.53;;
67248;SDS011;63247;54.300;18.592;2023-07-29T07:40:56;8.93;;;3.47;;
67248;SDS011;63247;54.300;18.592;2023-07-29T07:43:22;5.38;;;3.25;;
67248;SDS011;63247;54.300;18.592;2023-07-29T07:45:48;5.25;;;3.33;;
67248;SDS011;63247;54.300;18.592;2023-07-29T07:48:14;7.43;;;3.93;;
67248;SDS011;63247;54.300;18.592;2023-07-29T07:50:41;147.27;;;11.25;;
67248;SDS011;63247;54.300;18.592;2023-07-29T07:53:07;75.03;;;5.90;;
67248;SDS011;63247;54.300;18.592;2023-07-29T07:55:32;6.07;;;3.50;;
67248;SDS011;63247;54.300;18.592;2023-07-29T07:57:58;5.00;;;3.90;;
67248;SDS011;63247;54.300;18.592;2023-07-29T08:00:23;4.70;;;3.70;;
67248;SDS011;63247;54.300;18.592;2023-07-29T08:02:48;6.53;;;3.67;;
67248;SDS011;63247;54.300;18.592;2023-07-29T08:05:14;4.30;;;3.30;;
67248;SDS011;63247;54.300;18.592;2023-07-29T08:07:40;4.80;;;3.17;;
67248;SDS011;63247;54.300;18.592;2023-07-29T08:10:05;4.53;;;3.47;;
67248;SDS011;63247;54.300;18.592;2023-07-29T08:12:32;4.40;;;3.58;;
67248;SDS011;63247;54.300;18.592;2023-07-29T08:14:57;6.37;;;3.40;;
67248;SDS011;63247;54.300;18.592;2023-07-29T08:17:23;6.45;;;3.60;;
67248;SDS011;63247;54.300;18.592;2023-07-29T08:19:48;4.97;;;3.40;;
67248;SDS011;63247;54.300;18.592;2023-07-29T08:22:14;4.80;;;3.33;;
67248;SDS011;63247;54.300;18.592;2023-07-29T08:24:41;4.97;;;3.67;;
67248;SDS011;63247;54.300;18.592;2023-07-29T08:27:07;5.35;;;3.53;;
67248;SDS011;63247;54.300;18.592;2023-07-29T08:29:33;4.60;;;3.73;;
67248;SDS011;63247;54.300;18.592;2023-07-29T08:31:58;5.70;;;3.30;;
67248;SDS011;63247;54.300;18.592;2023-07-29T08:34:23;4.63;;;3.40;;
67248;SDS011;63247;54.300;18.592;2023-07-29T08:36:49;7.55;;;4.32;;
67248;SDS011;63247;54.300;18.592;2023-07-29T08:39:14;6.63;;;3.70;;
67248;SDS011;63247;54.300;18.592;2023-07-29T08:44:30;5.65;;;3.58;;
67248;SDS011;63247;54.300;18.592;2023-07-29T08:47:00;7.45;;;4.40;;
67248;SDS011;63247;54.300;18.592;2023-07-29T08:49:29;4.27;;;3.70;;
67248;SDS011;63247;54.300;18.592;2023-07-29T08:51:56;4.53;;;3.35;;
67248;SDS011;63247;54.300;18.592;2023-07-29T08:54:22;4.30;;;3.20;;
67248;SDS011;63247;54.300;18.592;2023-07-29T08:56:48;6.30;;;3.43;;
67248;SDS011;63247;54.300;18.592;2023-07-29T08:59:14;5.63;;;3.30;;
67248;SDS011;63247;54.300;18.592;2023-07-29T09:01:42;4.18;;;3.17;;
67248;SDS011;63247;54.300;18.592;2023-07-29T09:04:08;4.30;;;3.00;;
67248;SDS011;63247;54.300;18.592;2023-07-29T09:06:34;6.53;;;3.38;;
67248;SDS011;63247;54.300;18.592;2023-07-29T09:09:01;6.32;;;3.22;;
67248;SDS011;63247;54.300;18.592;2023-07-29T09:11:27;4.30;;;3.05;;
67248;SDS011;63247;54.300;18.592;2023-07-29T09:13:53;4.18;;;3.05;;
67248;SDS011;63247;54.300;18.592;2023-07-29T09:16:22;4.80;;;3.23;;
67248;SDS011;63247;54.300;18.592;2023-07-29T09:18:48;3.85;;;2.60;;
67248;SDS011;63247;54.300;18.592;2023-07-29T09:21:17;3.78;;;2.88;;
67248;SDS011;63247;54.300;18.592;2023-07-29T09:23:48;5.00;;;2.90;;
67248;SDS011;63247;54.300;18.592;2023-07-29T09:26:18;3.92;;;2.75;;
67248;SDS011;63247;54.300;18.592;2023-07-29T09:28:50;3.88;;;2.90;;
67248;SDS011;63247;54.300;18.592;2023-07-29T09:31:21;7.05;;;2.80;;
67248;SDS011;63247;54.300;18.592;2023-07-29T09:33:48;6.05;;;2.90;;
67248;SDS011;63247;54.300;18.592;2023-07-29T09:36:14;3.73;;;2.60;;
67248;SDS011;63247;54.300;18.592;2023-07-29T09:38:40;4.90;;;2.95;;
67248;SDS011;63247;54.300;18.592;2023-07-29T09:41:05;4.37;;;3.00;;
67248;SDS011;63247;54.300;18.592;2023-07-29T09:43:31;4.53;;;3.13;;
67248;SDS011;63247;54.300;18.592;2023-07-29T09:48:27;4.00;;;3.00;;
67248;SDS011;63247;54.300;18.592;2023-07-29T09:50:57;5.10;;;3.13;;
67248;SDS011;63247;54.300;18.592;2023-07-29T09:53:22;5.70;;;3.17;;
67248;SDS011;63247;54.300;18.592;2023-07-29T09:55:49;4.90;;;3.25;;
67248;SDS011;63247;54.300;18.592;2023-07-29T09:58:18;4.97;;;3.10;;
67248;SDS011;63247;54.300;18.592;2023-07-29T10:00:44;4.03;;;2.80;;
67248;SDS011;63247;54.300;18.592;2023-07-29T10:03:11;4.47;;;3.00;;
67248;SDS011;63247;54.300;18.592;2023-07-29T10:05:39;3.80;;;2.63;;
67248;SDS011;63247;54.300;18.592;2023-07-29T10:08:05;4.93;;;2.70;;
67248;SDS011;63247;54.300;18.592;2023-07-29T10:10:31;4.93;;;2.60;;
67248;SDS011;63247;54.300;18.592;2023-07-29T10:12:56;5.37;;;2.43;;
67248;SDS011;63247;54.300;18.592;2023-07-29T10:15:22;4.13;;;2.60;;
67248;SDS011;63247;54.300;18.592;2023-07-29T10:17:48;6.10;;;2.60;;
67248;SDS011;63247;54.300;18.592;2023-07-29T10:20:15;6.28;;;2.50;;
67248;SDS011;63247;54.300;18.592;2023-07-29T10:22:42;3.83;;;2.53;;
67248;SDS011;63247;54.300;18.592;2023-07-29T10:30:13;4.38;;;2.78;;
67248;SDS011;63247;54.300;18.592;2023-07-29T10:32:38;4.00;;;2.63;;
67248;SDS011;63247;54.300;18.592;2023-07-29T10:35:09;4.25;;;2.58;;
67248;SDS011;63247;54.300;18.592;2023-07-29T10:37:35;4.90;;;2.47;;
67248;SDS011;63247;54.300;18.592;2023-07-29T10:40:03;4.38;;;2.70;;
67248;SDS011;63247;54.300;18.592;2023-07-29T10:42:31;4.47;;;2.70;;
67248;SDS011;63247;54.300;18.592;2023-07-29T10:44:57;5.00;;;2.60;;
67248;SDS011;63247;54.300;18.592;2023-07-29T10:47:26;4.10;;;2.40;;
67248;SDS011;63247;54.300;18.592;2023-07-29T10:49:55;4.18;;;2.50;;
67248;SDS011;63247;54.300;18.592;2023-07-29T10:52:37;5.53;;;2.47;;
67248;SDS011;63247;54.300;18.592;2023-07-29T10:55:52;4.80;;;2.60;;
67248;SDS011;63247;54.300;18.592;2023-07-29T11:00:36;5.93;;;2.80;;
67248;SDS011;63247;54.300;18.592;2023-07-29T11:03:02;5.35;;;2.55;;
67248;SDS011;63247;54.300;18.592;2023-07-29T11:05:46;7.43;;;2.50;;
67248;SDS011;63247;54.300;18.592;2023-07-29T11:08:22;4.10;;;2.60;;
67248;SDS011;63247;54.300;18.592;2023-07-29T11:11:05;4.55;;;2.70;;
67248;SDS011;63247;54.300;18.592;2023-07-29T11:13:37;5.05;;;2.80;;
67248;SDS011;63247;54.300;18.592;2023-07-29T11:16:03;6.63;;;2.53;;
67248;SDS011;63247;54.300;18.592;2023-07-29T11:18:33;4.43;;;2.30;;
67248;SDS011;63247;54.300;18.592;2023-07-29T11:21:00;5.13;;;2.88;;
67248;SDS011;63247;54.300;18.592;2023-07-29T11:23:30;4.57;;;2.70;;
67248;SDS011;63247;54.300;18.592;2023-07-29T11:25:57;4.43;;;2.40;;
67248;SDS011;63247;54.300;18.592;2023-07-29T11:28:23;6.23;;;2.70;;
67248;SDS011;63247;54.300;18.592;2023-07-29T11:30:53;3.87;;;2.50;;
67248;SDS011;63247;54.300;18.592;2023-07-29T11:33:20;4.55;;;2.50;;
67248;SDS011;63247;54.300;18.592;2023-07-29T11:35:48;3.88;;;2.50;;
67248;SDS011;63247;54.300;18.592;2023-07-29T11:38:18;5.05;;;2.53;;
67248;SDS011;63247;54.300;18.592;2023-07-29T11:40:58;4.22;;;2.40;;
67248;SDS011;63247;54.300;18.592;2023-07-29T11:43:27;4.77;;;2.60;;
67248;SDS011;63247;54.300;18.592;2023-07-29T11:45:53;6.93;;;2.58;;
67248;SDS011;63247;54.300;18.592;2023-07-29T11:48:26;5.27;;;2.67;;
67248;SDS011;63247;54.300;18.592;2023-07-29T11:51:00;5.25;;;3.22;;
67248;SDS011;63247;54.300;18.592;2023-07-29T11:53:30;6.80;;;3.20;;
67248;SDS011;63247;54.300;18.592;2023-07-29T11:55:56;6.97;;;2.78;;
67248;SDS011;63247;54.300;18.592;2023-07-29T11:58:22;3.97;;;2.47;;
67248;SDS011;63247;54.300;18.592;2023-07-29T12:00:48;8.10;;;2.80;;
67248;SDS011;63247;54.300;18.592;2023-07-29T12:03:14;4.38;;;2.30;;
67248;SDS011;63247;54.300;18.592;2023-07-29T12:05:41;3.83;;;2.43;;
67248;SDS011;63247;54.300;18.592;2023-07-29T12:08:07;5.65;;;2.67;;
67248;SDS011;63247;54.300;18.592;2023-07-29T12:10:33;5.20;;;2.50;;
67248;SDS011;63247;54.300;18.592;2023-07-29T12:12:59;4.30;;;2.55;;
67248;SDS011;63247;54.300;18.592;2023-07-29T12:15:27;5.73;;;2.90;;
67248;SDS011;63247;54.300;18.592;2023-07-29T12:17:55;5.32;;;2.72;;
67248;SDS011;63247;54.300;18.592;2023-07-29T12:20:21;5.47;;;2.70;;
67248;SDS011;63247;54.300;18.592;2023-07-29T12:22:51;4.50;;;2.70;;
67248;SDS011;63247;54.300;18.592;2023-07-29T12:25:17;3.67;;;2.50;;
67248;SDS011;63247;54.300;18.592;2023-07-29T12:27:43;4.13;;;2.50;;
67248;SDS011;63247;54.300;18.592;2023-07-29T12:30:09;4.47;;;2.63;;
67248;SDS011;63247;54.300;18.592;2023-07-29T12:32:45;4.00;;;2.53;;
67248;SDS011;63247;54.300;18.592;2023-07-29T12:35:11;4.15;;;2.42;;
67248;SDS011;63247;54.300;18.592;2023-07-29T12:37:36;4.90;;;2.60;;
67248;SDS011;63247;54.300;18.592;2023-07-29T12:40:03;4.22;;;2.60;;
67248;SDS011;63247;54.300;18.592;2023-07-29T12:42:29;4.75;;;3.00;;
67248;SDS011;63247;54.300;18.592;2023-07-29T12:44:55;4.40;;;2.67;;
67248;SDS011;63247;54.300;18.592;2023-07-29T12:47:20;4.23;;;2.70;;
67248;SDS011;63247;54.300;18.592;2023-07-29T12:49:46;4.60;;;3.03;;
67248;SDS011;63247;54.300;18.592;2023-07-29T12:52:11;4.77;;;2.70;;
67248;SDS011;63247;54.300;18.592;2023-07-29T12:54:36;6.07;;;2.83;;
67248;SDS011;63247;54.300;18.592;2023-07-29T12:57:02;4.13;;;2.73;;
67248;SDS011;63247;54.300;18.592;2023-07-29T12:59:27;4.30;;;2.95;;
67248;SDS011;63247;54.300;18.592;2023-07-29T13:01:53;5.63;;;3.07;;
67248;SDS011;63247;54.300;18.592;2023-07-29T13:04:18;4.73;;;2.80;;
67248;SDS011;63247;54.300;18.592;2023-07-29T13:06:43;4.70;;;2.90;;
67248;SDS011;63247;54.300;18.592;2023-07-29T13:09:09;4.80;;;2.80;;
67248;SDS011;63247;54.300;18.592;2023-07-29T13:11:35;4.78;;;3.15;;
67248;SDS011;63247;54.300;18.592;2023-07-29T13:14:01;4.80;;;2.67;;
67248;SDS011;63247;54.300;18.592;2023-07-29T13:16:27;3.85;;;2.30;;
67248;SDS011;63247;54.300;18.592;2023-07-29T13:18:53;4.90;;;2.70;;
67248;SDS011;63247;54.300;18.592;2023-07-29T13:21:18;5.23;;;2.90;;
67248;SDS011;63247;54.300;18.592;2023-07-29T13:23:44;6.30;;;2.70;;
67248;SDS011;63247;54.300;18.592;2023-07-29T13:26:09;4.47;;;2.60;;
67248;SDS011;63247;54.300;18.592;2023-07-29T13:28:36;5.22;;;3.13;;
67248;SDS011;63247;54.300;18.592;2023-07-29T13:31:01;3.87;;;2.60;;
67248;SDS011;63247;54.300;18.592;2023-07-29T13:33:28;5.28;;;2.70;;
67248;SDS011;63247;54.300;18.592;2023-07-29T13:35:53;5.77;;;2.83;;
67248;SDS011;63247;54.300;18.592;2023-07-29T13:38:19;3.88;;;2.30;;
67248;SDS011;63247;54.300;18.592;2023-07-29T13:40:45;5.93;;;2.50;;
67248;SDS011;63247;54.300;18.592;2023-07-29T13:43:10;4.18;;;2.53;;
67248;SDS011;63247;54.300;18.592;2023-07-29T13:45:36;4.67;;;2.60;;
67248;SDS011;63247;54.300;18.592;2023-07-29T13:48:01;4.37;;;2.60;;
67248;SDS011;63247;54.300;18.592;2023-07-29T13:50:27;4.18;;;2.50;;
67248;SDS011;63247;54.300;18.592;2023-07-29T13:52:52;4.77;;;2.50;;
67248;SDS011;63247;54.300;18.592;2023-07-29T13:55:17;3.73;;;2.33;;
67248;SDS011;63247;54.300;18.592;2023-07-29T13:57:43;3.73;;;2.47;;
67248;SDS011;63247;54.300;18.592;2023-07-29T14:00:08;4.63;;;2.83;;
67248;SDS011;63247;54.300;18.592;2023-07-29T14:02:34;4.93;;;2.45;;
67248;SDS011;63247;54.300;18.592;2023-07-29T14:04:59;4.57;;;2.80;;
67248;SDS011;63247;54.300;18.592;2023-07-29T14:07:25;3.50;;;2.43;;
67248;SDS011;63247;54.300;18.592;2023-07-29T14:09:50;4.22;;;2.70;;
67248;SDS011;63247;54.300;18.592;2023-07-29T14:12:16;3.50;;;2.30;;
67248;SDS011;63247;54.300;18.592;2023-07-29T14:14:41;3.20;;;2.30;;
67248;SDS011;63247;54.300;18.592;2023-07-29T14:17:07;3.40;;;2.25;;
67248;SDS011;63247;54.300;18.592;2023-07-29T14:19:38;3.83;;;2.42;;
67248;SDS011;63247;54.300;18.592;2023-07-29T14:22:04;4.17;;;2.40;;
67248;SDS011;63247;54.300;18.592;2023-07-29T14:24:30;4.85;;;2.58;;
67248;SDS011;63247;54.300;18.592;2023-07-29T14:26:55;3.43;;;2.33;;
67248;SDS011;63247;54.300;18.592;2023-07-29T14:29:20;3.83;;;2.27;;
67248;SDS011;63247;54.300;18.592;2023-07-29T14:31:46;3.60;;;2.50;;
67248;SDS011;63247;54.300;18.592;2023-07-29T14:34:11;4.00;;;2.43;;
67248;SDS011;63247;54.300;18.592;2023-07-29T14:36:37;7.20;;;2.80;;
67248;SDS011;63247;54.300;18.592;2023-07-29T14:39:02;4.43;;;2.57;;